sensor_id;sensor_type;location;lat;lon;timestamp;temperature;humidity
66257;DHT22;53049;43.446;3.698;2024-01-27T00:00:09;11.10;99.90
66257;DHT22;53049;43.446;3.698;2024-01-27T00:02:35;11.10;99.90
66257;DHT22;53049;43.446;3.698;2024-01-27T00:05:01;11.10;99.90
66257;DHT22;53049;43.446;3.698;2024-01-27T00:07:28;11.10;99.90
66257;DHT22;53049;43.446;3.698;2024-01-27T00:09:54;11.00;99.90
66257;DHT22;53049;43.446;3.698;2024-01-27T00:12:20;10.80;99.90
66257;DHT22;53049;43.446;3.698;2024-01-27T00:14:46;10.70;99.90
66257;DHT22;53049;43.446;3.698;2024-01-27T00:17:12;10.60;99.90
66257;DHT22;53049;43.446;3.698;2024-01-27T00:19:38;10.70;99.90
66257;DHT22;53049;43.446;3.698;2024-01-27T00:22:03;10.70;99.90
66257;DHT22;53049;43.446;3.698;2024-01-27T00:24:29;10.60;99.90
66257;DHT22;53049;43.446;3.698;2024-01-27T00:26:55;10.60;99.90
66257;DHT22;53049;43.446;3.698;2024-01-27T00:29:20;10.60;99.90
66257;DHT22;53049;43.446;3.698;2024-01-27T00:31:46;10.50;99.90
66257;DHT22;53049;43.446;3.698;2024-01-27T00:34:12;10.40;99.90
66257;DHT22;53049;43.446;3.698;2024-01-27T00:36:37;10.30;99.90
66257;DHT22;53049;43.446;3.698;2024-01-27T00:39:04;10.20;99.90
66257;DHT22;53049;43.446;3.698;2024-01-27T00:41:29;10.20;99.90
66257;DHT22;53049;43.446;3.698;2024-01-27T00:43:55;10.20;99.90
66257;DHT22;53049;43.446;3.698;2024-01-27T00:46:21;10.10;99.90
66257;DHT22;53049;43.446;3.698;2024-01-27T00:48:46;10.10;99.90
66257;DHT22;53049;43.446;3.698;2024-01-27T00:51:13;10.00;99.90
66257;DHT22;53049;43.446;3.698;2024-01-27T00:53:39;10.00;99.90
66257;DHT22;53049;43.446;3.698;2024-01-27T00:56:05;9.90;99.90
66257;DHT22;53049;43.446;3.698;2024-01-27T00:58:31;9.90;99.90
66257;DHT22;53049;43.446;3.698;2024-01-27T01:00:57;9.80;99.90
66257;DHT22;53049;43.446;3.698;2024-01-27T01:03:24;9.70;99.90
66257;DHT22;53049;43.446;3.698;2024-01-27T01:05:50;9.80;99.90
66257;DHT22;53049;43.446;3.698;2024-01-27T01:08:15;9.80;99.90
66257;DHT22;53049;43.446;3.698;2024-01-27T01:10:41;9.70;99.90
66257;DHT22;53049;43.446;3.698;2024-01-27T01:13:07;9.70;99.90
66257;DHT22;53049;43.446;3.698;2024-01-27T01:15:32;9.70;99.90
66257;DHT22;53049;43.446;3.698;2024-01-27T01:17:58;9.60;99.90
66257;DHT22;53049;43.446;3.698;2024-01-27T01:20:25;9.60;99.90
66257;DHT22;53049;43.446;3.698;2024-01-27T01:22:52;9.70;99.90
66257;DHT22;53049;43.446;3.698;2024-01-27T01:25:18;9.70;99.90
66257;DHT22;53049;43.446;3.698;2024-01-27T01:27:45;9.70;99.90
66257;DHT22;53049;43.446;3.698;2024-01-27T01:30:11;9.70;99.90
66257;DHT22;53049;43.446;3.698;2024-01-27T01:32:37;9.70;99.90
66257;DHT22;53049;43.446;3.698;2024-01-27T01:35:03;9.70;99.90
66257;DHT22;53049;43.446;3.698;2024-01-27T01:37:29;9.60;99.90
66257;DHT22;53049;43.446;3.698;2024-01-27T01:39:55;9.60;99.90
66257;DHT22;53049;43.446;3.698;2024-01-27T01:42:20;9.60;99.90
66257;DHT22;53049;43.446;3.698;2024-01-27T01:44:50;9.60;99.90
66257;DHT22;53049;43.446;3.698;2024-01-27T01:47:16;9.50;99.90
66257;DHT22;53049;43.446;3.698;2024-01-27T01:49:42;9.50;99.90
66257;DHT22;53049;43.446;3.698;2024-01-27T01:52:08;9.50;99.90
66257;DHT22;53049;43.446;3.698;2024-01-27T01:54:34;9.60;99.90
66257;DHT22;53049;43.446;3.698;2024-01-27T01:57:00;9.60;99.90
66257;DHT22;53049;43.446;3.698;2024-01-27T01:59:26;9.60;99.90
66257;DHT22;53049;43.446;3.698;2024-01-27T02:01:51;9.60;99.90
66257;DHT22;53049;43.446;3.698;2024-01-27T02:04:17;9.60;99.90
66257;DHT22;53049;43.446;3.698;2024-01-27T02:06:43;9.70;99.90
66257;DHT22;53049;43.446;3.698;2024-01-27T02:09:08;9.70;99.90
66257;DHT22;53049;43.446;3.698;2024-01-27T02:11:35;9.70;99.90
66257;DHT22;53049;43.446;3.698;2024-01-27T02:14:01;9.70;99.90
66257;DHT22;53049;43.446;3.698;2024-01-27T02:16:26;9.70;99.90
66257;DHT22;53049;43.446;3.698;2024-01-27T02:18:52;9.70;99.90
66257;DHT22;53049;43.446;3.698;2024-01-27T02:21:18;9.70;99.90
66257;DHT22;53049;43.446;3.698;2024-01-27T02:23:43;9.60;99.90
66257;DHT22;53049;43.446;3.698;2024-01-27T02:26:09;9.50;99.90
66257;DHT22;53049;43.446;3.698;2024-01-27T02:28:35;9.60;99.90
66257;DHT22;53049;43.446;3.698;2024-01-27T02:31:01;9.60;99.90
66257;DHT22;53049;43.446;3.698;2024-01-27T02:33:26;9.50;99.90
66257;DHT22;53049;43.446;3.698;2024-01-27T02:35:52;9.50;99.90
66257;DHT22;53049;43.446;3.698;2024-01-27T02:38:18;9.50;99.90
66257;DHT22;53049;43.446;3.698;2024-01-27T02:40:43;9.40;99.90
66257;DHT22;53049;43.446;3.698;2024-01-27T02:43:09;9.40;99.90
66257;DHT22;53049;43.446;3.698;2024-01-27T02:45:34;9.30;99.90
66257;DHT22;53049;43.446;3.698;2024-01-27T02:48:00;9.20;99.90
66257;DHT22;53049;43.446;3.698;2024-01-27T02:50:26;9.20;99.90
66257;DHT22;53049;43.446;3.698;2024-01-27T02:52:52;9.10;99.90
66257;DHT22;53049;43.446;3.698;2024-01-27T02:55:18;9.10;99.90
66257;DHT22;53049;43.446;3.698;2024-01-27T02:57:43;9.20;99.90
66257;DHT22;53049;43.446;3.698;2024-01-27T03:00:09;9.20;99.90
66257;DHT22;53049;43.446;3.698;2024-01-27T03:02:35;9.30;99.90
66257;DHT22;53049;43.446;3.698;2024-01-27T03:05:01;9.30;99.90
66257;DHT22;53049;43.446;3.698;2024-01-27T03:07:27;9.30;99.90
66257;DHT22;53049;43.446;3.698;2024-01-27T03:09:52;9.20;99.90
66257;DHT22;53049;43.446;3.698;2024-01-27T03:12:18;9.10;99.90
66257;DHT22;53049;43.446;3.698;2024-01-27T03:14:44;9.00;99.90
66257;DHT22;53049;43.446;3.698;2024-01-27T03:17:11;9.00;99.90
66257;DHT22;53049;43.446;3.698;2024-01-27T03:19:37;8.90;99.90
66257;DHT22;53049;43.446;3.698;2024-01-27T03:22:03;8.90;99.90
66257;DHT22;53049;43.446;3.698;2024-01-27T03:24:28;8.90;99.90
66257;DHT22;53049;43.446;3.698;2024-01-27T03:26:54;8.80;99.90
66257;DHT22;53049;43.446;3.698;2024-01-27T03:29:20;8.80;99.90
66257;DHT22;53049;43.446;3.698;2024-01-27T03:31:45;8.80;99.90
66257;DHT22;53049;43.446;3.698;2024-01-27T03:34:11;8.70;99.90
66257;DHT22;53049;43.446;3.698;2024-01-27T03:36:36;8.70;99.90
66257;DHT22;53049;43.446;3.698;2024-01-27T03:39:02;8.70;99.90
66257;DHT22;53049;43.446;3.698;2024-01-27T03:41:29;8.70;99.90
66257;DHT22;53049;43.446;3.698;2024-01-27T03:43:54;8.70;99.90
66257;DHT22;53049;43.446;3.698;2024-01-27T03:46:20;8.70;99.90
66257;DHT22;53049;43.446;3.698;2024-01-27T03:48:46;8.70;99.90
66257;DHT22;53049;43.446;3.698;2024-01-27T03:51:11;8.70;99.90
66257;DHT22;53049;43.446;3.698;2024-01-27T03:53:37;8.70;99.90
66257;DHT22;53049;43.446;3.698;2024-01-27T03:56:03;8.70;99.90
66257;DHT22;53049;43.446;3.698;2024-01-27T03:58:30;8.70;99.90
66257;DHT22;53049;43.446;3.698;2024-01-27T04:00:57;8.70;99.90
66257;DHT22;53049;43.446;3.698;2024-01-27T04:03:23;8.70;99.90
66257;DHT22;53049;43.446;3.698;2024-01-27T04:05:49;8.70;99.90
66257;DHT22;53049;43.446;3.698;2024-01-27T04:08:14;8.60;99.90
66257;DHT22;53049;43.446;3.698;2024-01-27T04:10:40;8.60;99.90
66257;DHT22;53049;43.446;3.698;2024-01-27T04:13:06;8.50;99.90
66257;DHT22;53049;43.446;3.698;2024-01-27T04:15:35;8.50;99.90
66257;DHT22;53049;43.446;3.698;2024-01-27T04:18:07;8.50;99.90
66257;DHT22;53049;43.446;3.698;2024-01-27T04:20:34;8.50;99.90
66257;DHT22;53049;43.446;3.698;2024-01-27T04:23:00;8.50;99.90
66257;DHT22;53049;43.446;3.698;2024-01-27T04:25:26;8.50;99.90
66257;DHT22;53049;43.446;3.698;2024-01-27T04:27:51;8.50;99.90
66257;DHT22;53049;43.446;3.698;2024-01-27T04:30:18;8.40;99.90
66257;DHT22;53049;43.446;3.698;2024-01-27T04:32:44;8.40;99.90
66257;DHT22;53049;43.446;3.698;2024-01-27T04:35:10;8.40;99.90
66257;DHT22;53049;43.446;3.698;2024-01-27T04:37:37;8.40;99.90
66257;DHT22;53049;43.446;3.698;2024-01-27T04:40:07;8.40;99.90
66257;DHT22;53049;43.446;3.698;2024-01-27T04:42:42;8.40;99.90
66257;DHT22;53049;43.446;3.698;2024-01-27T04:45:08;8.40;99.90
66257;DHT22;53049;43.446;3.698;2024-01-27T04:47:33;8.40;99.90
66257;DHT22;53049;43.446;3.698;2024-01-27T04:49:59;8.40;99.90
66257;DHT22;53049;43.446;3.698;2024-01-27T04:52:25;8.30;99.90
66257;DHT22;53049;43.446;3.698;2024-01-27T04:54:51;8.30;99.90
66257;DHT22;53049;43.446;3.698;2024-01-27T04:57:17;8.30;99.90
66257;DHT22;53049;43.446;3.698;2024-01-27T04:59:42;8.30;99.90
66257;DHT22;53049;43.446;3.698;2024-01-27T05:02:08;8.30;99.90
66257;DHT22;53049;43.446;3.698;2024-01-27T05:04:34;8.30;99.90
66257;DHT22;53049;43.446;3.698;2024-01-27T05:06:59;8.20;99.90
66257;DHT22;53049;43.446;3.698;2024-01-27T05:09:25;8.20;99.90
66257;DHT22;53049;43.446;3.698;2024-01-27T05:11:51;8.20;99.90
66257;DHT22;53049;43.446;3.698;2024-01-27T05:14:19;8.20;99.90
66257;DHT22;53049;43.446;3.698;2024-01-27T05:16:45;8.20;99.90
66257;DHT22;53049;43.446;3.698;2024-01-27T05:19:11;8.20;99.90
66257;DHT22;53049;43.446;3.698;2024-01-27T05:21:37;8.20;99.90
66257;DHT22;53049;43.446;3.698;2024-01-27T05:24:03;8.20;99.90
66257;DHT22;53049;43.446;3.698;2024-01-27T05:26:29;8.20;99.90
66257;DHT22;53049;43.446;3.698;2024-01-27T05:28:55;8.20;99.90
66257;DHT22;53049;43.446;3.698;2024-01-27T05:31:21;8.20;99.90
66257;DHT22;53049;43.446;3.698;2024-01-27T05:33:46;8.10;99.90
66257;DHT22;53049;43.446;3.698;2024-01-27T05:36:12;8.10;99.90
66257;DHT22;53049;43.446;3.698;2024-01-27T05:38:38;8.00;99.90
66257;DHT22;53049;43.446;3.698;2024-01-27T05:41:04;8.10;99.90
66257;DHT22;53049;43.446;3.698;2024-01-27T05:43:30;8.10;99.90
66257;DHT22;53049;43.446;3.698;2024-01-27T05:45:55;8.10;99.90
66257;DHT22;53049;43.446;3.698;2024-01-27T05:48:21;8.00;99.90
66257;DHT22;53049;43.446;3.698;2024-01-27T05:50:57;8.10;99.90
66257;DHT22;53049;43.446;3.698;2024-01-27T05:53:23;8.00;99.90
66257;DHT22;53049;43.446;3.698;2024-01-27T05:55:49;8.00;99.90
66257;DHT22;53049;43.446;3.698;2024-01-27T05:58:15;8.00;99.90
66257;DHT22;53049;43.446;3.698;2024-01-27T06:00:43;8.00;99.90
66257;DHT22;53049;43.446;3.698;2024-01-27T06:03:11;8.00;99.90
66257;DHT22;53049;43.446;3.698;2024-01-27T06:05:37;8.10;99.90
66257;DHT22;53049;43.446;3.698;2024-01-27T06:08:04;8.00;99.90
66257;DHT22;53049;43.446;3.698;2024-01-27T06:10:30;8.00;99.90
66257;DHT22;53049;43.446;3.698;2024-01-27T06:12:57;8.10;99.90
66257;DHT22;53049;43.446;3.698;2024-01-27T06:15:22;8.10;99.90
66257;DHT22;53049;43.446;3.698;2024-01-27T06:17:48;8.10;99.90
66257;DHT22;53049;43.446;3.698;2024-01-27T06:20:14;8.00;99.90
66257;DHT22;53049;43.446;3.698;2024-01-27T06:22:42;8.00;99.90
66257;DHT22;53049;43.446;3.698;2024-01-27T06:25:08;8.00;99.90
66257;DHT22;53049;43.446;3.698;2024-01-27T06:27:34;7.90;99.90
66257;DHT22;53049;43.446;3.698;2024-01-27T06:30:00;7.90;99.90
66257;DHT22;53049;43.446;3.698;2024-01-27T06:32:26;8.00;99.90
66257;DHT22;53049;43.446;3.698;2024-01-27T06:34:52;7.90;99.90
66257;DHT22;53049;43.446;3.698;2024-01-27T06:37:17;7.90;99.90
66257;DHT22;53049;43.446;3.698;2024-01-27T06:39:43;7.90;99.90
66257;DHT22;53049;43.446;3.698;2024-01-27T06:42:09;8.00;99.90
66257;DHT22;53049;43.446;3.698;2024-01-27T06:44:34;8.00;99.90
66257;DHT22;53049;43.446;3.698;2024-01-27T06:47:00;7.90;99.90
66257;DHT22;53049;43.446;3.698;2024-01-27T06:49:26;7.90;99.90
66257;DHT22;53049;43.446;3.698;2024-01-27T06:51:51;7.90;99.90
66257;DHT22;53049;43.446;3.698;2024-01-27T06:54:17;7.90;99.90
66257;DHT22;53049;43.446;3.698;2024-01-27T06:56:43;7.90;99.90
66257;DHT22;53049;43.446;3.698;2024-01-27T06:59:08;7.90;99.90
66257;DHT22;53049;43.446;3.698;2024-01-27T07:01:34;7.90;99.90
66257;DHT22;53049;43.446;3.698;2024-01-27T07:04:00;7.90;99.90
66257;DHT22;53049;43.446;3.698;2024-01-27T07:06:25;7.90;99.90
66257;DHT22;53049;43.446;3.698;2024-01-27T07:08:51;7.80;99.90
66257;DHT22;53049;43.446;3.698;2024-01-27T07:11:17;7.80;99.90
66257;DHT22;53049;43.446;3.698;2024-01-27T07:13:42;7.80;99.90
66257;DHT22;53049;43.446;3.698;2024-01-27T07:16:08;7.80;99.90
66257;DHT22;53049;43.446;3.698;2024-01-27T07:18:34;7.80;99.90
66257;DHT22;53049;43.446;3.698;2024-01-27T07:21:01;7.80;99.90
66257;DHT22;53049;43.446;3.698;2024-01-27T07:23:27;7.80;99.90
66257;DHT22;53049;43.446;3.698;2024-01-27T07:25:53;7.80;99.90
66257;DHT22;53049;43.446;3.698;2024-01-27T07:28:19;7.80;99.90
66257;DHT22;53049;43.446;3.698;2024-01-27T07:30:45;7.80;99.90
66257;DHT22;53049;43.446;3.698;2024-01-27T07:33:11;7.70;99.90
66257;DHT22;53049;43.446;3.698;2024-01-27T07:35:36;7.70;99.90
66257;DHT22;53049;43.446;3.698;2024-01-27T07:38:02;7.70;99.90
66257;DHT22;53049;43.446;3.698;2024-01-27T07:40:28;7.70;99.90
66257;DHT22;53049;43.446;3.698;2024-01-27T07:42:53;7.70;99.90
66257;DHT22;53049;43.446;3.698;2024-01-27T07:45:20;7.80;99.90
66257;DHT22;53049;43.446;3.698;2024-01-27T07:47:45;7.80;99.90
66257;DHT22;53049;43.446;3.698;2024-01-27T07:50:11;7.90;99.90
66257;DHT22;53049;43.446;3.698;2024-01-27T07:52:37;7.90;99.90
66257;DHT22;53049;43.446;3.698;2024-01-27T07:55:04;7.90;99.90
66257;DHT22;53049;43.446;3.698;2024-01-27T07:57:30;7.90;99.90
66257;DHT22;53049;43.446;3.698;2024-01-27T07:59:55;8.00;99.90
66257;DHT22;53049;43.446;3.698;2024-01-27T08:02:21;7.90;99.90
66257;DHT22;53049;43.446;3.698;2024-01-27T08:04:47;7.80;99.90
66257;DHT22;53049;43.446;3.698;2024-01-27T08:07:12;7.70;99.90
66257;DHT22;53049;43.446;3.698;2024-01-27T08:09:40;7.70;99.90
66257;DHT22;53049;43.446;3.698;2024-01-27T08:12:07;7.70;99.90
66257;DHT22;53049;43.446;3.698;2024-01-27T08:14:33;7.70;99.90
66257;DHT22;53049;43.446;3.698;2024-01-27T08:17:00;7.70;99.90
66257;DHT22;53049;43.446;3.698;2024-01-27T08:19:26;7.70;99.90
66257;DHT22;53049;43.446;3.698;2024-01-27T08:21:52;7.80;99.90
66257;DHT22;53049;43.446;3.698;2024-01-27T08:24:18;7.90;99.90
66257;DHT22;53049;43.446;3.698;2024-01-27T08:26:47;8.00;99.90
66257;DHT22;53049;43.446;3.698;2024-01-27T08:29:14;8.10;99.90
66257;DHT22;53049;43.446;3.698;2024-01-27T08:31:39;8.10;99.90
66257;DHT22;53049;43.446;3.698;2024-01-27T08:34:05;8.20;99.90
66257;DHT22;53049;43.446;3.698;2024-01-27T08:36:31;8.30;99.90
66257;DHT22;53049;43.446;3.698;2024-01-27T08:38:57;8.30;99.90
66257;DHT22;53049;43.446;3.698;2024-01-27T08:41:23;8.40;99.90
66257;DHT22;53049;43.446;3.698;2024-01-27T08:43:49;8.50;99.90
66257;DHT22;53049;43.446;3.698;2024-01-27T08:46:14;8.50;99.90
66257;DHT22;53049;43.446;3.698;2024-01-27T08:48:41;8.50;99.90
66257;DHT22;53049;43.446;3.698;2024-01-27T08:51:10;8.60;99.90
66257;DHT22;53049;43.446;3.698;2024-01-27T08:53:36;8.60;99.90
66257;DHT22;53049;43.446;3.698;2024-01-27T08:56:02;8.70;99.90
66257;DHT22;53049;43.446;3.698;2024-01-27T08:58:27;8.70;99.90
66257;DHT22;53049;43.446;3.698;2024-01-27T09:00:53;8.80;99.90
66257;DHT22;53049;43.446;3.698;2024-01-27T09:03:19;8.90;99.90
66257;DHT22;53049;43.446;3.698;2024-01-27T09:05:47;9.00;99.90
66257;DHT22;53049;43.446;3.698;2024-01-27T09:08:13;9.00;99.90
66257;DHT22;53049;43.446;3.698;2024-01-27T09:10:39;9.00;99.90
66257;DHT22;53049;43.446;3.698;2024-01-27T09:13:04;9.00;99.90
66257;DHT22;53049;43.446;3.698;2024-01-27T09:15:30;9.00;99.90
66257;DHT22;53049;43.446;3.698;2024-01-27T09:17:56;9.00;99.90
66257;DHT22;53049;43.446;3.698;2024-01-27T09:20:22;9.10;99.90
66257;DHT22;53049;43.446;3.698;2024-01-27T09:22:48;9.20;99.90
66257;DHT22;53049;43.446;3.698;2024-01-27T09:25:16;9.20;99.90
66257;DHT22;53049;43.446;3.698;2024-01-27T09:27:42;9.30;99.90
66257;DHT22;53049;43.446;3.698;2024-01-27T09:30:08;9.30;99.90
66257;DHT22;53049;43.446;3.698;2024-01-27T09:32:34;9.40;99.90
66257;DHT22;53049;43.446;3.698;2024-01-27T09:34:59;9.40;99.90
66257;DHT22;53049;43.446;3.698;2024-01-27T09:37:25;9.50;99.90
66257;DHT22;53049;43.446;3.698;2024-01-27T09:39:51;9.60;99.90
66257;DHT22;53049;43.446;3.698;2024-01-27T09:42:20;9.70;99.90
66257;DHT22;53049;43.446;3.698;2024-01-27T09:44:48;9.80;99.90
66257;DHT22;53049;43.446;3.698;2024-01-27T09:47:15;9.90;99.90
66257;DHT22;53049;43.446;3.698;2024-01-27T09:49:42;10.00;99.90
66257;DHT22;53049;43.446;3.698;2024-01-27T09:52:08;10.10;99.90
66257;DHT22;53049;43.446;3.698;2024-01-27T09:54:35;10.10;99.90
66257;DHT22;53049;43.446;3.698;2024-01-27T09:57:02;10.10;99.90
66257;DHT22;53049;43.446;3.698;2024-01-27T09:59:29;10.10;99.90
66257;DHT22;53049;43.446;3.698;2024-01-27T10:01:57;10.10;99.90
66257;DHT22;53049;43.446;3.698;2024-01-27T10:04:24;10.20;99.90
66257;DHT22;53049;43.446;3.698;2024-01-27T10:06:50;10.20;99.90
66257;DHT22;53049;43.446;3.698;2024-01-27T10:09:17;10.20;99.90
66257;DHT22;53049;43.446;3.698;2024-01-27T10:11:46;10.20;99.90
66257;DHT22;53049;43.446;3.698;2024-01-27T10:14:13;10.30;99.90
66257;DHT22;53049;43.446;3.698;2024-01-27T10:16:45;10.30;99.90
66257;DHT22;53049;43.446;3.698;2024-01-27T10:19:16;10.40;99.90
66257;DHT22;53049;43.446;3.698;2024-01-27T10:21:45;10.50;99.90
66257;DHT22;53049;43.446;3.698;2024-01-27T10:24:11;10.50;99.90
66257;DHT22;53049;43.446;3.698;2024-01-27T10:26:37;10.50;99.90
66257;DHT22;53049;43.446;3.698;2024-01-27T10:29:03;10.50;99.90
66257;DHT22;53049;43.446;3.698;2024-01-27T10:31:30;10.50;99.90
66257;DHT22;53049;43.446;3.698;2024-01-27T10:33:57;10.60;99.90
66257;DHT22;53049;43.446;3.698;2024-01-27T10:36:24;10.60;99.90
66257;DHT22;53049;43.446;3.698;2024-01-27T10:38:50;10.70;99.90
66257;DHT22;53049;43.446;3.698;2024-01-27T10:41:23;10.70;99.90
66257;DHT22;53049;43.446;3.698;2024-01-27T10:43:53;10.80;99.90
66257;DHT22;53049;43.446;3.698;2024-01-27T10:46:19;10.90;99.90
66257;DHT22;53049;43.446;3.698;2024-01-27T10:48:52;11.00;99.90
66257;DHT22;53049;43.446;3.698;2024-01-27T10:51:26;11.10;99.90
66257;DHT22;53049;43.446;3.698;2024-01-27T10:54:01;11.20;99.90
66257;DHT22;53049;43.446;3.698;2024-01-27T10:56:27;11.20;99.90
66257;DHT22;53049;43.446;3.698;2024-01-27T10:58:56;11.30;99.90
66257;DHT22;53049;43.446;3.698;2024-01-27T11:01:24;11.40;99.90
66257;DHT22;53049;43.446;3.698;2024-01-27T11:03:52;11.40;99.90
66257;DHT22;53049;43.446;3.698;2024-01-27T11:06:22;11.50;99.90
66257;DHT22;53049;43.446;3.698;2024-01-27T11:08:51;11.60;99.90
66257;DHT22;53049;43.446;3.698;2024-01-27T11:11:18;11.70;99.90
66257;DHT22;53049;43.446;3.698;2024-01-27T11:13:44;11.70;99.90
66257;DHT22;53049;43.446;3.698;2024-01-27T11:16:17;11.80;99.90
66257;DHT22;53049;43.446;3.698;2024-01-27T11:18:43;11.80;99.90
66257;DHT22;53049;43.446;3.698;2024-01-27T11:21:16;11.90;99.90
66257;DHT22;53049;43.446;3.698;2024-01-27T11:23:42;12.00;99.90
66257;DHT22;53049;43.446;3.698;2024-01-27T11:26:09;12.00;99.90
66257;DHT22;53049;43.446;3.698;2024-01-27T11:28:36;12.10;99.90
66257;DHT22;53049;43.446;3.698;2024-01-27T11:31:07;12.30;99.90
66257;DHT22;53049;43.446;3.698;2024-01-27T11:33:33;12.30;99.90
66257;DHT22;53049;43.446;3.698;2024-01-27T11:38:28;12.50;99.90
66257;DHT22;53049;43.446;3.698;2024-01-27T11:40:54;12.60;99.90
66257;DHT22;53049;43.446;3.698;2024-01-27T11:43:19;12.60;99.90
66257;DHT22;53049;43.446;3.698;2024-01-27T11:45:58;12.70;99.90
66257;DHT22;53049;43.446;3.698;2024-01-27T11:48:24;12.80;99.90
66257;DHT22;53049;43.446;3.698;2024-01-27T11:51:05;12.80;99.90
66257;DHT22;53049;43.446;3.698;2024-01-27T11:53:31;12.90;99.90
66257;DHT22;53049;43.446;3.698;2024-01-27T11:55:57;12.90;99.90
66257;DHT22;53049;43.446;3.698;2024-01-27T11:58:24;12.90;99.90
66257;DHT22;53049;43.446;3.698;2024-01-27T12:00:50;12.90;99.90
66257;DHT22;53049;43.446;3.698;2024-01-27T12:03:16;12.90;99.90
66257;DHT22;53049;43.446;3.698;2024-01-27T12:05:41;13.00;99.90
66257;DHT22;53049;43.446;3.698;2024-01-27T12:08:08;13.00;99.90
66257;DHT22;53049;43.446;3.698;2024-01-27T12:10:34;13.00;99.90
66257;DHT22;53049;43.446;3.698;2024-01-27T12:13:01;13.00;99.90
66257;DHT22;53049;43.446;3.698;2024-01-27T12:15:26;13.00;99.90
66257;DHT22;53049;43.446;3.698;2024-01-27T12:17:52;13.00;99.90
66257;DHT22;53049;43.446;3.698;2024-01-27T12:20:18;13.10;99.90
66257;DHT22;53049;43.446;3.698;2024-01-27T12:22:44;13.10;99.90
66257;DHT22;53049;43.446;3.698;2024-01-27T12:25:11;13.10;99.90
66257;DHT22;53049;43.446;3.698;2024-01-27T12:27:42;13.10;99.90
66257;DHT22;53049;43.446;3.698;2024-01-27T12:30:08;13.10;99.90
66257;DHT22;53049;43.446;3.698;2024-01-27T12:32:35;13.10;99.90
66257;DHT22;53049;43.446;3.698;2024-01-27T12:35:08;13.10;99.90
66257;DHT22;53049;43.446;3.698;2024-01-27T12:37:36;13.10;99.90
66257;DHT22;53049;43.446;3.698;2024-01-27T12:40:15;13.10;99.90
66257;DHT22;53049;43.446;3.698;2024-01-27T12:42:41;13.10;99.90
66257;DHT22;53049;43.446;3.698;2024-01-27T12:45:07;13.20;99.90
66257;DHT22;53049;43.446;3.698;2024-01-27T12:47:33;13.20;99.90
66257;DHT22;53049;43.446;3.698;2024-01-27T12:49:59;13.20;99.90
66257;DHT22;53049;43.446;3.698;2024-01-27T12:52:26;13.30;99.90
66257;DHT22;53049;43.446;3.698;2024-01-27T12:54:52;13.30;99.90
66257;DHT22;53049;43.446;3.698;2024-01-27T12:57:19;13.40;99.90
66257;DHT22;53049;43.446;3.698;2024-01-27T12:59:45;13.50;99.90
66257;DHT22;53049;43.446;3.698;2024-01-27T13:02:11;13.60;99.90
66257;DHT22;53049;43.446;3.698;2024-01-27T13:04:37;13.60;99.90
66257;DHT22;53049;43.446;3.698;2024-01-27T13:07:02;13.70;99.90
66257;DHT22;53049;43.446;3.698;2024-01-27T13:09:28;13.80;99.90
66257;DHT22;53049;43.446;3.698;2024-01-27T13:11:54;13.80;99.90
66257;DHT22;53049;43.446;3.698;2024-01-27T13:14:19;13.80;99.90
66257;DHT22;53049;43.446;3.698;2024-01-27T13:16:46;13.90;99.90
66257;DHT22;53049;43.446;3.698;2024-01-27T13:19:11;14.00;99.90
66257;DHT22;53049;43.446;3.698;2024-01-27T13:21:37;14.10;99.90
66257;DHT22;53049;43.446;3.698;2024-01-27T13:24:05;14.10;99.90
66257;DHT22;53049;43.446;3.698;2024-01-27T13:26:33;14.20;99.90
66257;DHT22;53049;43.446;3.698;2024-01-27T13:29:03;14.30;99.90
66257;DHT22;53049;43.446;3.698;2024-01-27T13:31:30;14.30;99.90
66257;DHT22;53049;43.446;3.698;2024-01-27T13:33:56;14.40;99.90
66257;DHT22;53049;43.446;3.698;2024-01-27T13:36:23;14.50;99.90
66257;DHT22;53049;43.446;3.698;2024-01-27T13:38:48;14.50;99.90
66257;DHT22;53049;43.446;3.698;2024-01-27T13:41:14;14.40;99.90
66257;DHT22;53049;43.446;3.698;2024-01-27T13:43:41;14.50;99.90
66257;DHT22;53049;43.446;3.698;2024-01-27T13:46:07;14.50;99.90
66257;DHT22;53049;43.446;3.698;2024-01-27T13:48:32;14.60;99.90
66257;DHT22;53049;43.446;3.698;2024-01-27T13:50:58;14.70;99.90
66257;DHT22;53049;43.446;3.698;2024-01-27T13:53:24;14.70;99.90
66257;DHT22;53049;43.446;3.698;2024-01-27T13:55:50;14.70;99.90
66257;DHT22;53049;43.446;3.698;2024-01-27T13:58:17;14.80;99.90
66257;DHT22;53049;43.446;3.698;2024-01-27T14:00:42;14.80;99.90
66257;DHT22;53049;43.446;3.698;2024-01-27T14:03:08;14.80;99.90
66257;DHT22;53049;43.446;3.698;2024-01-27T14:05:34;14.80;99.90
66257;DHT22;53049;43.446;3.698;2024-01-27T14:08:00;14.90;99.90
66257;DHT22;53049;43.446;3.698;2024-01-27T14:10:26;15.00;99.90
66257;DHT22;53049;43.446;3.698;2024-01-27T14:12:52;15.00;99.90
66257;DHT22;53049;43.446;3.698;2024-01-27T14:15:18;15.10;99.90
66257;DHT22;53049;43.446;3.698;2024-01-27T14:17:43;15.10;99.90
66257;DHT22;53049;43.446;3.698;2024-01-27T14:20:11;15.10;99.90
66257;DHT22;53049;43.446;3.698;2024-01-27T14:22:37;15.10;99.90
66257;DHT22;53049;43.446;3.698;2024-01-27T14:25:03;15.10;99.90
66257;DHT22;53049;43.446;3.698;2024-01-27T14:27:30;15.10;99.90
66257;DHT22;53049;43.446;3.698;2024-01-27T14:29:56;15.10;99.90
66257;DHT22;53049;43.446;3.698;2024-01-27T14:32:22;15.00;99.90
66257;DHT22;53049;43.446;3.698;2024-01-27T14:34:48;15.00;99.90
66257;DHT22;53049;43.446;3.698;2024-01-27T14:37:15;15.00;99.90
66257;DHT22;53049;43.446;3.698;2024-01-27T14:39:43;15.00;99.90
66257;DHT22;53049;43.446;3.698;2024-01-27T14:42:11;15.00;99.90
66257;DHT22;53049;43.446;3.698;2024-01-27T14:44:37;15.00;99.90
66257;DHT22;53049;43.446;3.698;2024-01-27T14:47:04;14.90;99.90
66257;DHT22;53049;43.446;3.698;2024-01-27T14:49:30;14.90;99.90
66257;DHT22;53049;43.446;3.698;2024-01-27T14:51:55;14.90;99.90
66257;DHT22;53049;43.446;3.698;2024-01-27T14:54:21;14.90;99.90
66257;DHT22;53049;43.446;3.698;2024-01-27T14:56:47;14.90;99.90
66257;DHT22;53049;43.446;3.698;2024-01-27T14:59:12;14.90;99.90
66257;DHT22;53049;43.446;3.698;2024-01-27T15:01:38;14.90;99.90
66257;DHT22;53049;43.446;3.698;2024-01-27T15:04:04;14.90;99.90
66257;DHT22;53049;43.446;3.698;2024-01-27T15:06:30;14.90;99.90
66257;DHT22;53049;43.446;3.698;2024-01-27T15:08:56;14.80;99.90
66257;DHT22;53049;43.446;3.698;2024-01-27T15:11:22;14.70;99.90
66257;DHT22;53049;43.446;3.698;2024-01-27T15:13:48;14.70;99.90
66257;DHT22;53049;43.446;3.698;2024-01-27T15:16:13;14.70;99.90
66257;DHT22;53049;43.446;3.698;2024-01-27T15:18:40;14.70;99.90
66257;DHT22;53049;43.446;3.698;2024-01-27T15:21:09;14.70;99.90
66257;DHT22;53049;43.446;3.698;2024-01-27T15:23:36;14.70;99.90
66257;DHT22;53049;43.446;3.698;2024-01-27T15:26:04;14.60;99.90
66257;DHT22;53049;43.446;3.698;2024-01-27T15:28:31;14.50;99.90
66257;DHT22;53049;43.446;3.698;2024-01-27T15:30:57;14.50;99.90
66257;DHT22;53049;43.446;3.698;2024-01-27T15:33:22;14.40;99.90
66257;DHT22;53049;43.446;3.698;2024-01-27T15:35:49;14.40;99.90